Time;durP1;ratioP1;P1;durP2;ratioP2;P2;SDS_P1;SDS_P2;PMS_P1;PMS_P2;Temp;Humidity;BMP_temperature;BMP_pressure;BME280_temperature;BME280_humidity;BME280_pressure;Samples;Min_cycle;Max_cycle;Signal;HPM_P1;HPM_P2
2023/03/23 00:05:20;;;;;;;16.7;11.7;;;;;;;8.4;74.2;98280;;;;
2023/03/23 00:16:28;;;;;;;16.7;11.7;;;;;;;8.1;74.9;98290;;;;
2023/03/23 00:27:21;;;;;;;16.7;11.7;;;;;;;8;76.2;98280;;;;
2023/03/23 00:37:21;;;;;;;15.6;11.8;;;;;;;7.8;77.1;98280;;;;
2023/03/23 00:48:20;;;;;;;15.6;11.8;;;;;;;7.7;77.4;98270;;;;
2023/03/23 00:59:20;;;;;;;15.6;11.8;;;;;;;7.5;77.6;98270;;;;
2023/03/23 01:10:20;;;;;;;16.4;11.4;;;;;;;7.4;78.3;98260;;;;
2023/03/23 01:20:20;;;;;;;16.4;11.4;;;;;;;7.3;78.6;98250;;;;
2023/03/23 01:30:20;;;;;;;16.4;11.4;;;;;;;7.2;78.7;98260;;;;
2023/03/23 01:41:20;;;;;;;22.6;13.2;;;;;;;7.2;79.1;98250;;;;
2023/03/23 01:51:20;;;;;;;22.6;13.2;;;;;;;7.2;79.8;98260;;;;
2023/03/23 02:02:20;;;;;;;22.6;13.2;;;;;;;7.3;80.5;98260;;;;
2023/03/23 02:13:20;;;;;;;16.7;11;;;;;;;7.4;80.3;98270;;;;
2023/03/23 02:23:20;;;;;;;16.7;11;;;;;;;7.5;80;98270;;;;
2023/03/23 02:34:20;;;;;;;9.7;6.4;;;;;;;7.6;79.6;98270;;;;
2023/03/23 02:45:20;;;;;;;9.7;6.4;;;;;;;7.8;79.4;98260;;;;
2023/03/23 02:55:22;;;;;;;9.7;6.4;;;;;;;8.2;79.3;98260;;;;
2023/03/23 03:06:20;;;;;;;7.7;4.4;;;;;;;8.3;78.6;98250;;;;
2023/03/23 03:16:20;;;;;;;7.7;4.4;;;;;;;8.6;78.5;98240;;;;
2023/03/23 03:26:21;;;;;;;7.7;4.4;;;;;;;9;78;98240;;;;
2023/03/23 03:36:21;;;;;;;10.2;4.8;;;;;;;9.1;77.2;98220;;;;
2023/03/23 03:47:20;;;;;;;10.2;4.8;;;;;;;9.3;77;98230;;;;
2023/03/23 03:58:20;;;;;;;10.2;4.8;;;;;;;9.8;75.9;98220;;;;
2023/03/23 04:08:21;;;;;;;6.7;3.9;;;;;;;10.1;74.9;98210;;;;
2023/03/23 04:19:21;;;;;;;6.7;3.9;;;;;;;10.1;74.7;98210;;;;
2023/03/23 04:29:20;;;;;;;6.7;3.9;;;;;;;10.1;74.8;98220;;;;
2023/03/23 04:40:20;;;;;;;6.9;4.5;;;;;;;10;74.5;98210;;;;
2023/03/23 04:51:20;;;;;;;6.9;4.5;;;;;;;9.9;74.2;98210;;;;
2023/03/23 05:01:20;;;;;;;6.9;4.5;;;;;;;9.7;74;98220;;;;
2023/03/23 05:11:20;;;;;;;5.3;3.4;;;;;;;9.6;74.4;98230;;;;
2023/03/23 05:21:20;;;;;;;5.3;3.4;;;;;;;9.7;75.2;98240;;;;
2023/03/23 05:31:21;;;;;;;5.3;3.4;;;;;;;10;75.1;98220;;;;
2023/03/23 05:41:20;;;;;;;5.7;3.7;;;;;;;10.4;75;98220;;;;
2023/03/23 05:52:20;;;;;;;5.7;3.7;;;;;;;11;74;98230;;;;
2023/03/23 06:02:20;;;;;;;5.7;3.7;;;;;;;11.6;72;98240;;;;
2023/03/23 06:12:21;;;;;;;7.2;3.6;;;;;;;12.2;69.2;98230;;;;
2023/03/23 06:23:20;;;;;;;7.2;3.6;;;;;;;12.6;69;98220;;;;
2023/03/23 06:34:21;;;;;;;11.2;3.9;;;;;;;13.3;66.7;98220;;;;
2023/03/23 06:45:21;;;;;;;11.2;3.9;;;;;;;13.6;65.4;98210;;;;
2023/03/23 06:56:20;;;;;;;11.2;3.9;;;;;;;14.2;64.4;98210;;;;
2023/03/23 07:06:21;;;;;;;8;4.7;;;;;;;14.6;61.7;98220;;;;
2023/03/23 07:17:20;;;;;;;8;4.7;;;;;;;15.1;60.4;98210;;;;
2023/03/23 07:27:20;;;;;;;8;4.7;;;;;;;15.8;58.4;98210;;;;
2023/03/23 07:37:20;;;;;;;6.8;3.9;;;;;;;16.2;56.4;98210;;;;
2023/03/23 07:47:20;;;;;;;6.8;3.9;;;;;;;16.4;56.5;98210;;;;
2023/03/23 07:58:20;;;;;;;6.8;3.9;;;;;;;16.8;55.1;98210;;;;
2023/03/23 08:08:21;;;;;;;6.3;3.6;;;;;;;17.2;54.7;98220;;;;
2023/03/23 08:18:21;;;;;;;6.3;3.6;;;;;;;17.1;54.1;98230;;;;
2023/03/23 08:29:20;;;;;;;6.3;3.6;;;;;;;17.3;54.1;98240;;;;
2023/03/23 08:40:21;;;;;;;5;3.2;;;;;;;17.5;53.9;98230;;;;
2023/03/23 08:51:21;;;;;;;5;3.2;;;;;;;17.7;52.7;98220;;;;
2023/03/23 09:01:21;;;;;;;5;3.2;;;;;;;17.6;52.3;98230;;;;
2023/03/23 09:11:20;;;;;;;11.4;3.9;;;;;;;17.7;51.8;98220;;;;
2023/03/23 09:22:23;;;;;;;11.4;3.9;;;;;;;17.8;51.4;98220;;;;
2023/03/23 09:32:22;;;;;;;11.4;3.9;;;;;;;17.9;51.7;98230;;;;
2023/03/23 09:43:21;;;;;;;5;2.7;;;;;;;18.4;50.2;98220;;;;
2023/03/23 09:54:21;;;;;;;5;2.7;;;;;;;18.2;47.9;98210;;;;
2023/03/23 10:04:20;;;;;;;5.1;3.2;;;;;;;18.4;49.8;98210;;;;
2023/03/23 10:14:21;;;;;;;5.1;3.2;;;;;;;18.3;48;98200;;;;
2023/03/23 10:24:21;;;;;;;5.1;3.2;;;;;;;18.8;47.4;98180;;;;
2023/03/23 10:35:21;;;;;;;7;3.4;;;;;;;19.5;43.6;98160;;;;
2023/03/23 10:45:21;;;;;;;7;3.4;;;;;;;19.7;42.5;98160;;;;
2023/03/23 10:56:21;;;;;;;7;3.4;;;;;;;19.3;41.6;98150;;;;
2023/03/23 11:06:21;;;;;;;6.1;2.7;;;;;;;19.9;41.6;98150;;;;
2023/03/23 11:16:21;;;;;;;6.1;2.7;;;;;;;20.3;39.4;98150;;;;
2023/03/23 11:27:21;;;;;;;6.1;2.7;;;;;;;20.5;38.3;98130;;;;
2023/03/23 11:37:21;;;;;;;4.3;2.2;;;;;;;20.5;38.2;98120;;;;
2023/03/23 11:48:21;;;;;;;4.3;2.2;;;;;;;21.1;37.6;98120;;;;
2023/03/23 11:59:21;;;;;;;4.3;2.2;;;;;;;20.8;38;98110;;;;
2023/03/23 12:09:21;;;;;;;6.7;3;;;;;;;20.6;38.8;98140;;;;
2023/03/23 12:19:21;;;;;;;6.7;3;;;;;;;20.3;39.5;98130;;;;
2023/03/23 12:29:21;;;;;;;6.7;3;;;;;;;20;40.4;98130;;;;
2023/03/23 12:39:21;;;;;;;5.8;2.7;;;;;;;19.9;41.3;98120;;;;
2023/03/23 12:49:21;;;;;;;5.8;2.7;;;;;;;19.7;41.4;98120;;;;
2023/03/23 12:59:21;;;;;;;5.8;2.7;;;;;;;19.7;42.2;98110;;;;
2023/03/23 13:09:22;;;;;;;8.4;3;;;;;;;19.6;43.1;98120;;;;
2023/03/23 13:20:21;;;;;;;8.4;3;;;;;;;19.2;44.2;98130;;;;
2023/03/23 13:30:21;;;;;;;8.4;3;;;;;;;18.8;45.2;98120;;;;
2023/03/23 13:40:21;;;;;;;5.8;3.3;;;;;;;18.7;45.1;98110;;;;
2023/03/23 13:50:21;;;;;;;5.8;3.3;;;;;;;18.8;46.1;98110;;;;
2023/03/23 14:00:21;;;;;;;5.8;3.3;;;;;;;18.8;45.7;98120;;;;
2023/03/23 14:10:21;;;;;;;6.6;3.1;;;;;;;18.9;46.2;98100;;;;
2023/03/23 14:21:21;;;;;;;6.6;3.1;;;;;;;18.7;46.3;98100;;;;
2023/03/23 14:31:21;;;;;;;6.6;3.1;;;;;;;18.8;47.1;98090;;;;
2023/03/23 14:42:21;;;;;;;8;3.3;;;;;;;18.8;47.3;98090;;;;
2023/03/23 14:53:21;;;;;;;8;3.3;;;;;;;18.8;47;98090;;;;
2023/03/23 15:04:21;;;;;;;6.5;2.7;;;;;;;18.8;46.8;98080;;;;
2023/03/23 15:14:22;;;;;;;6.5;2.7;;;;;;;18.8;47.2;98090;;;;
2023/03/23 15:24:21;;;;;;;6.5;2.7;;;;;;;18.6;47.6;98080;;;;
2023/03/23 15:35:21;;;;;;;7.7;3.7;;;;;;;18.5;49.3;98090;;;;
2023/03/23 15:46:21;;;;;;;7.7;3.7;;;;;;;18.3;50.3;98090;;;;
2023/03/23 15:56:21;;;;;;;7.7;3.7;;;;;;;18.1;48.6;98080;;;;
2023/03/23 16:06:21;;;;;;;8.6;4.1;;;;;;;18.1;48;98090;;;;
2023/03/23 16:16:21;;;;;;;8.6;4.1;;;;;;;18;47.5;98090;;;;
2023/03/23 16:27:22;;;;;;;8.6;4.1;;;;;;;17.8;47.4;98090;;;;
2023/03/23 16:37:21;;;;;;;9.3;4.7;;;;;;;17.7;47.3;98090;;;;
2023/03/23 16:47:24;;;;;;;9.3;4.7;;;;;;;17.5;47.7;98090;;;;
2023/03/23 16:57:21;;;;;;;9.3;4.7;;;;;;;17.4;47.3;98090;;;;
2023/03/23 17:07:21;;;;;;;8.2;5.3;;;;;;;17;48.2;98090;;;;
2023/03/23 17:17:21;;;;;;;8.2;5.3;;;;;;;16.8;48;98100;;;;
2023/03/23 17:27:21;;;;;;;8.2;5.3;;;;;;;16.7;48.2;98100;;;;
2023/03/23 17:38:21;;;;;;;7.8;4.9;;;;;;;16.6;47.9;98110;;;;
2023/03/23 17:48:21;;;;;;;7.8;4.9;;;;;;;16.4;48.9;98100;;;;
2023/03/23 17:58:21;;;;;;;7.8;4.9;;;;;;;16.3;48.8;98110;;;;
2023/03/23 18:09:21;;;;;;;9.5;6.5;;;;;;;16.2;49.4;98130;;;;
2023/03/23 18:20:21;;;;;;;9.5;6.5;;;;;;;16;49.9;98140;;;;
2023/03/23 18:30:21;;;;;;;9.5;6.5;;;;;;;16;49.9;98130;;;;
2023/03/23 18:40:21;;;;;;;13.2;9.4;;;;;;;15.9;50.2;98140;;;;
2023/03/23 18:45:10;;;;;;;13.2;9.4;;;;;;;15.8;50.2;98150;;;;
2023/03/23 18:56:09;;;;;;;13.2;9.4;;;;;;;15.9;50.3;98170;;;;
2023/03/23 19:07:09;;;;;;;16.5;11.4;;;;;;;16;50.2;98190;;;;
2023/03/23 19:17:09;;;;;;;16.5;11.4;;;;;;;15.9;50.7;98190;;;;
2023/03/23 19:27:09;;;;;;;16.5;11.4;;;;;;;15.9;50.8;98190;;;;
2023/03/23 19:37:09;;;;;;;13.3;8.7;;;;;;;16;50.9;98190;;;;
2023/03/23 19:47:09;;;;;;;13.3;8.7;;;;;;;16;51;98180;;;;
2023/03/23 19:58:09;;;;;;;13.3;8.7;;;;;;;15.9;51.2;98180;;;;
2023/03/23 20:08:09;;;;;;;10.4;8.1;;;;;;;15.9;51.5;98160;;;;
2023/03/23 20:18:13;;;;;;;10.4;8.1;;;;;;;15.7;51.9;98180;;;;
2023/03/23 20:29:09;;;;;;;10.4;8.1;;;;;;;15.7;52.2;98180;;;;
2023/03/23 20:40:09;;;;;;;12;8.1;;;;;;;15.8;52.2;98200;;;;
2023/03/23 20:50:09;;;;;;;12;8.1;;;;;;;16;52;98210;;;;
2023/03/23 21:00:14;;;;;;;12;8.1;;;;;;;16.1;51.9;98210;;;;
2023/03/23 21:11:09;;;;;;;12.2;8.3;;;;;;;16.1;52.3;98220;;;;
2023/03/23 21:22:13;;;;;;;12.2;8.3;;;;;;;16.2;52.7;98220;;;;
2023/03/23 21:33:10;;;;;;;8.8;6.3;;;;;;;16.2;53.4;98200;;;;
2023/03/23 21:43:13;;;;;;;8.8;6.3;;;;;;;16;53.5;98190;;;;
2023/03/23 21:54:09;;;;;;;8.8;6.3;;;;;;;15.8;54;98200;;;;
2023/03/23 22:05:09;;;;;;;10.3;6.5;;;;;;;15.6;54.7;98200;;;;
2023/03/23 22:15:10;;;;;;;10.3;6.5;;;;;;;15.6;55.1;98210;;;;
2023/03/23 22:25:09;;;;;;;10.3;6.5;;;;;;;15.7;55.3;98220;;;;
2023/03/23 22:36:09;;;;;;;12;6.7;;;;;;;15.9;54.8;98220;;;;
2023/03/23 22:46:09;;;;;;;12;6.7;;;;;;;15.9;55;98220;;;;
2023/03/23 22:57:09;;;;;;;12;6.7;;;;;;;15.9;55.3;98240;;;;
2023/03/23 23:08:11;;;;;;;9.6;6.2;;;;;;;15.7;55.5;98230;;;;
2023/03/23 23:18:11;;;;;;;9.6;6.2;;;;;;;15.5;56.2;98230;;;;
2023/03/23 23:28:10;;;;;;;9.6;6.2;;;;;;;15.4;56.5;98230;;;;
2023/03/23 23:39:10;;;;;;;10.2;6.4;;;;;;;15.2;57.3;98220;;;;
2023/03/23 23:49:09;;;;;;;10.2;6.4;;;;;;;15.2;57.5;98220;;;;
